Walnut Creek, California
Current Conditions -  °F | °C
As of 1:53 PM on Friday 28 Nov 2014 (Local Time) from KCCR Reporting Station
Clear Clear  
Wind Chill: 68°   Ceiling: Unl
Heat Index: 68°   Visibility: 10mi
Dew Point: 50°   Wind: 13mph
Humidity: 52%   Direction: 330°NNW
Pressure: 29.91"   Gusts: NA
Location:  37.9°N, 122.06°W
Report Text: KCCR 282153Z 33011KT 10SM CLR 20/10 A2991 RMK AO2 SLP115 T02000100
Loading
Personal Weather Stations






























Interactive Weather Map New forecast layout! Learn more

10-Day Weather Forecast

Advertisements
Track Severe Weather on mobile